sensor_id;sensor_type;location;lat;lon;timestamp;P1;durP1;ratioP1;P2;durP2;ratioP2
19087;SDS011;9676;50.916;13.352;2022-09-13T00:00:49;11.03;;;10.03;;
19087;SDS011;9676;50.916;13.352;2022-09-13T00:03:41;11.30;;;10.20;;
19087;SDS011;9676;50.916;13.352;2022-09-13T00:06:30;10.50;;;9.60;;
19087;SDS011;9676;50.916;13.352;2022-09-13T00:09:20;10.60;;;9.70;;
19087;SDS011;9676;50.916;13.352;2022-09-13T00:12:09;10.70;;;9.80;;
19087;SDS011;9676;50.916;13.352;2022-09-13T00:14:59;10.90;;;9.90;;
19087;SDS011;9676;50.916;13.352;2022-09-13T00:17:48;10.60;;;9.70;;
19087;SDS011;9676;50.916;13.352;2022-09-13T00:20:39;11.07;;;10.00;;
19087;SDS011;9676;50.916;13.352;2022-09-13T00:23:28;11.10;;;10.10;;
19087;SDS011;9676;50.916;13.352;2022-09-13T00:26:19;10.83;;;9.83;;
19087;SDS011;9676;50.916;13.352;2022-09-13T00:29:12;10.83;;;9.83;;
19087;SDS011;9676;50.916;13.352;2022-09-13T00:32:02;10.90;;;10.00;;
19087;SDS011;9676;50.916;13.352;2022-09-13T00:34:51;10.43;;;9.53;;
19087;SDS011;9676;50.916;13.352;2022-09-13T00:37:42;11.00;;;9.90;;
19087;SDS011;9676;50.916;13.352;2022-09-13T00:40:35;11.17;;;10.07;;
19087;SDS011;9676;50.916;13.352;2022-09-13T00:43:39;10.93;;;10.03;;
19087;SDS011;9676;50.916;13.352;2022-09-13T00:46:33;10.80;;;9.80;;
19087;SDS011;9676;50.916;13.352;2022-09-13T00:49:28;10.93;;;9.93;;
19087;SDS011;9676;50.916;13.352;2022-09-13T00:52:24;10.73;;;9.77;;
19087;SDS011;9676;50.916;13.352;2022-09-13T00:55:17;10.60;;;9.70;;
19087;SDS011;9676;50.916;13.352;2022-09-13T00:58:11;11.60;;;10.50;;
19087;SDS011;9676;50.916;13.352;2022-09-13T01:01:06;11.20;;;10.20;;
19087;SDS011;9676;50.916;13.352;2022-09-13T01:04:00;11.10;;;10.10;;
19087;SDS011;9676;50.916;13.352;2022-09-13T01:06:50;11.10;;;10.07;;
19087;SDS011;9676;50.916;13.352;2022-09-13T01:09:44;12.80;;;10.77;;
19087;SDS011;9676;50.916;13.352;2022-09-13T01:12:40;10.97;;;9.97;;
19087;SDS011;9676;50.916;13.352;2022-09-13T01:15:36;11.20;;;10.20;;
19087;SDS011;9676;50.916;13.352;2022-09-13T01:18:26;11.70;;;10.70;;
19087;SDS011;9676;50.916;13.352;2022-09-13T01:31:53;11.60;;;10.60;;
19087;SDS011;9676;50.916;13.352;2022-09-13T01:34:54;11.60;;;10.50;;
19087;SDS011;9676;50.916;13.352;2022-09-13T01:37:55;11.10;;;10.10;;
19087;SDS011;9676;50.916;13.352;2022-09-13T01:40:57;11.27;;;10.27;;
19087;SDS011;9676;50.916;13.352;2022-09-13T01:44:02;11.30;;;10.20;;
19087;SDS011;9676;50.916;13.352;2022-09-13T01:47:04;11.50;;;10.40;;
19087;SDS011;9676;50.916;13.352;2022-09-13T01:50:03;11.17;;;10.17;;
19087;SDS011;9676;50.916;13.352;2022-09-13T01:53:01;11.60;;;10.40;;
19087;SDS011;9676;50.916;13.352;2022-09-13T01:55:58;11.40;;;10.30;;
19087;SDS011;9676;50.916;13.352;2022-09-13T01:58:53;11.13;;;10.13;;
19087;SDS011;9676;50.916;13.352;2022-09-13T02:01:46;11.60;;;10.60;;
19087;SDS011;9676;50.916;13.352;2022-09-13T02:04:45;11.60;;;10.50;;
19087;SDS011;9676;50.916;13.352;2022-09-13T02:07:41;11.10;;;10.10;;
19087;SDS011;9676;50.916;13.352;2022-09-13T02:10:34;11.43;;;10.43;;
19087;SDS011;9676;50.916;13.352;2022-09-13T02:13:30;11.43;;;10.33;;
19087;SDS011;9676;50.916;13.352;2022-09-13T02:16:25;11.20;;;10.20;;
19087;SDS011;9676;50.916;13.352;2022-09-13T02:19:22;11.33;;;10.30;;
19087;SDS011;9676;50.916;13.352;2022-09-13T02:22:19;11.17;;;10.13;;
19087;SDS011;9676;50.916;13.352;2022-09-13T02:25:14;11.70;;;10.60;;
19087;SDS011;9676;50.916;13.352;2022-09-13T02:28:08;11.63;;;10.53;;
19087;SDS011;9676;50.916;13.352;2022-09-13T02:31:02;11.40;;;10.30;;
19087;SDS011;9676;50.916;13.352;2022-09-13T02:33:56;11.17;;;10.13;;
19087;SDS011;9676;50.916;13.352;2022-09-13T02:36:51;10.90;;;9.80;;
19087;SDS011;9676;50.916;13.352;2022-09-13T02:39:45;10.97;;;9.97;;
19087;SDS011;9676;50.916;13.352;2022-09-13T02:42:42;11.77;;;10.57;;
19087;SDS011;9676;50.916;13.352;2022-09-13T02:45:40;11.27;;;10.23;;
19087;SDS011;9676;50.916;13.352;2022-09-13T02:48:35;11.20;;;10.20;;
19087;SDS011;9676;50.916;13.352;2022-09-13T02:51:39;11.27;;;10.27;;
19087;SDS011;9676;50.916;13.352;2022-09-13T02:54:37;10.93;;;9.93;;
19087;SDS011;9676;50.916;13.352;2022-09-13T02:57:39;11.10;;;10.10;;
19087;SDS011;9676;50.916;13.352;2022-09-13T03:00:43;11.20;;;10.10;;
19087;SDS011;9676;50.916;13.352;2022-09-13T03:03:33;10.67;;;9.77;;
19087;SDS011;9676;50.916;13.352;2022-09-13T03:06:23;10.73;;;9.80;;
19087;SDS011;9676;50.916;13.352;2022-09-13T03:09:14;10.97;;;10.00;;
19087;SDS011;9676;50.916;13.352;2022-09-13T03:12:09;10.70;;;9.80;;
19087;SDS011;9676;50.916;13.352;2022-09-13T03:15:20;10.03;;;9.23;;
19087;SDS011;9676;50.916;13.352;2022-09-13T03:18:25;10.50;;;9.60;;
19087;SDS011;9676;50.916;13.352;2022-09-13T03:21:43;10.63;;;9.70;;
19087;SDS011;9676;50.916;13.352;2022-09-13T03:24:50;10.83;;;9.90;;
19087;SDS011;9676;50.916;13.352;2022-09-13T03:27:55;11.17;;;10.17;;
19087;SDS011;9676;50.916;13.352;2022-09-13T03:30:54;10.83;;;9.83;;
19087;SDS011;9676;50.916;13.352;2022-09-13T03:33:51;10.53;;;9.63;;
19087;SDS011;9676;50.916;13.352;2022-09-13T03:36:47;10.73;;;9.80;;
19087;SDS011;9676;50.916;13.352;2022-09-13T03:39:44;10.80;;;9.80;;
19087;SDS011;9676;50.916;13.352;2022-09-13T03:42:41;10.90;;;9.90;;
19087;SDS011;9676;50.916;13.352;2022-09-13T03:45:37;11.07;;;10.07;;
19087;SDS011;9676;50.916;13.352;2022-09-13T03:48:30;10.97;;;9.97;;
19087;SDS011;9676;50.916;13.352;2022-09-13T03:51:20;10.73;;;9.83;;
19087;SDS011;9676;50.916;13.352;2022-09-13T03:54:17;10.83;;;9.93;;
19087;SDS011;9676;50.916;13.352;2022-09-13T03:57:09;11.20;;;10.20;;
19087;SDS011;9676;50.916;13.352;2022-09-13T04:00:01;11.13;;;10.13;;
19087;SDS011;9676;50.916;13.352;2022-09-13T04:03:13;10.60;;;9.60;;
19087;SDS011;9676;50.916;13.352;2022-09-13T04:06:02;10.53;;;9.60;;
19087;SDS011;9676;50.916;13.352;2022-09-13T04:08:53;11.93;;;10.30;;
19087;SDS011;9676;50.916;13.352;2022-09-13T04:11:42;11.57;;;10.47;;
19087;SDS011;9676;50.916;13.352;2022-09-13T04:14:31;11.07;;;10.07;;
19087;SDS011;9676;50.916;13.352;2022-09-13T04:17:21;10.90;;;10.00;;
19087;SDS011;9676;50.916;13.352;2022-09-13T04:20:11;10.53;;;9.63;;
19087;SDS011;9676;50.916;13.352;2022-09-13T04:23:01;12.17;;;10.97;;
19087;SDS011;9676;50.916;13.352;2022-09-13T04:25:51;11.30;;;10.30;;
19087;SDS011;9676;50.916;13.352;2022-09-13T04:28:40;11.90;;;10.70;;
19087;SDS011;9676;50.916;13.352;2022-09-13T04:31:30;11.73;;;10.60;;
19087;SDS011;9676;50.916;13.352;2022-09-13T04:34:19;11.47;;;10.37;;
19087;SDS011;9676;50.916;13.352;2022-09-13T04:37:11;12.90;;;11.00;;
19087;SDS011;9676;50.916;13.352;2022-09-13T04:40:01;11.63;;;10.53;;
19087;SDS011;9676;50.916;13.352;2022-09-13T04:42:50;11.23;;;10.23;;
19087;SDS011;9676;50.916;13.352;2022-09-13T04:45:39;11.40;;;10.20;;
19087;SDS011;9676;50.916;13.352;2022-09-13T04:48:29;11.80;;;10.70;;
19087;SDS011;9676;50.916;13.352;2022-09-13T04:51:19;11.63;;;10.60;;
19087;SDS011;9676;50.916;13.352;2022-09-13T04:54:10;11.77;;;10.67;;
19087;SDS011;9676;50.916;13.352;2022-09-13T04:57:02;11.57;;;10.47;;
19087;SDS011;9676;50.916;13.352;2022-09-13T04:59:52;12.80;;;10.70;;
19087;SDS011;9676;50.916;13.352;2022-09-13T05:02:42;10.90;;;9.93;;
19087;SDS011;9676;50.916;13.352;2022-09-13T05:05:31;12.13;;;10.93;;
19087;SDS011;9676;50.916;13.352;2022-09-13T05:08:20;36.53;;;24.40;;
19087;SDS011;9676;50.916;13.352;2022-09-13T05:11:11;25.20;;;17.80;;
19087;SDS011;9676;50.916;13.352;2022-09-13T05:14:00;19.67;;;15.90;;
19087;SDS011;9676;50.916;13.352;2022-09-13T05:16:50;17.17;;;14.63;;
19087;SDS011;9676;50.916;13.352;2022-09-13T05:19:39;14.30;;;12.80;;
19087;SDS011;9676;50.916;13.352;2022-09-13T05:22:29;14.33;;;12.17;;
19087;SDS011;9676;50.916;13.352;2022-09-13T05:25:18;13.00;;;11.70;;
19087;SDS011;9676;50.916;13.352;2022-09-13T05:28:13;11.97;;;10.87;;
19087;SDS011;9676;50.916;13.352;2022-09-13T05:31:03;11.90;;;10.80;;
19087;SDS011;9676;50.916;13.352;2022-09-13T05:33:55;11.90;;;10.80;;
19087;SDS011;9676;50.916;13.352;2022-09-13T05:36:47;12.40;;;11.20;;
19087;SDS011;9676;50.916;13.352;2022-09-13T05:39:40;12.13;;;10.93;;
19087;SDS011;9676;50.916;13.352;2022-09-13T05:42:51;11.70;;;10.60;;
19087;SDS011;9676;50.916;13.352;2022-09-13T05:45:42;12.10;;;10.93;;
19087;SDS011;9676;50.916;13.352;2022-09-13T05:48:34;14.17;;;12.67;;
19087;SDS011;9676;50.916;13.352;2022-09-13T05:51:24;12.90;;;11.60;;
19087;SDS011;9676;50.916;13.352;2022-09-13T05:54:14;11.80;;;10.70;;
19087;SDS011;9676;50.916;13.352;2022-09-13T05:57:03;12.17;;;10.90;;
19087;SDS011;9676;50.916;13.352;2022-09-13T05:59:53;11.40;;;10.40;;
19087;SDS011;9676;50.916;13.352;2022-09-13T06:02:43;11.87;;;10.77;;
19087;SDS011;9676;50.916;13.352;2022-09-13T06:05:33;11.70;;;10.60;;
19087;SDS011;9676;50.916;13.352;2022-09-13T06:08:23;12.60;;;10.63;;
19087;SDS011;9676;50.916;13.352;2022-09-13T06:11:15;11.63;;;10.53;;
19087;SDS011;9676;50.916;13.352;2022-09-13T06:14:05;11.30;;;10.30;;
19087;SDS011;9676;50.916;13.352;2022-09-13T06:16:54;11.40;;;10.40;;
19087;SDS011;9676;50.916;13.352;2022-09-13T06:19:45;13.33;;;9.70;;
19087;SDS011;9676;50.916;13.352;2022-09-13T06:22:34;11.00;;;10.00;;
19087;SDS011;9676;50.916;13.352;2022-09-13T06:25:24;10.67;;;9.23;;
19087;SDS011;9676;50.916;13.352;2022-09-13T06:28:13;12.37;;;10.00;;
19087;SDS011;9676;50.916;13.352;2022-09-13T06:31:03;10.77;;;9.77;;
19087;SDS011;9676;50.916;13.352;2022-09-13T06:33:55;10.43;;;9.50;;
19087;SDS011;9676;50.916;13.352;2022-09-13T06:36:47;10.10;;;9.20;;
19087;SDS011;9676;50.916;13.352;2022-09-13T06:39:37;10.40;;;9.50;;
19087;SDS011;9676;50.916;13.352;2022-09-13T06:42:27;10.93;;;9.93;;
19087;SDS011;9676;50.916;13.352;2022-09-13T06:45:17;12.57;;;9.37;;
19087;SDS011;9676;50.916;13.352;2022-09-13T06:48:06;10.20;;;9.30;;
19087;SDS011;9676;50.916;13.352;2022-09-13T06:50:57;10.63;;;9.63;;
19087;SDS011;9676;50.916;13.352;2022-09-13T06:53:49;10.20;;;9.30;;
19087;SDS011;9676;50.916;13.352;2022-09-13T06:56:43;10.00;;;9.10;;
19087;SDS011;9676;50.916;13.352;2022-09-13T06:59:32;10.03;;;9.13;;
19087;SDS011;9676;50.916;13.352;2022-09-13T07:02:22;10.10;;;9.20;;
19087;SDS011;9676;50.916;13.352;2022-09-13T07:05:12;10.20;;;9.30;;
19087;SDS011;9676;50.916;13.352;2022-09-13T07:08:03;10.13;;;8.97;;
19087;SDS011;9676;50.916;13.352;2022-09-13T07:10:57;9.93;;;9.03;;
19087;SDS011;9676;50.916;13.352;2022-09-13T07:13:46;10.10;;;9.20;;
19087;SDS011;9676;50.916;13.352;2022-09-13T07:16:36;10.13;;;9.23;;
19087;SDS011;9676;50.916;13.352;2022-09-13T07:19:27;10.20;;;9.30;;
19087;SDS011;9676;50.916;13.352;2022-09-13T07:22:17;10.10;;;9.20;;
19087;SDS011;9676;50.916;13.352;2022-09-13T07:25:07;9.97;;;9.07;;
19087;SDS011;9676;50.916;13.352;2022-09-13T07:27:58;10.17;;;9.13;;
19087;SDS011;9676;50.916;13.352;2022-09-13T07:30:48;9.93;;;9.03;;
19087;SDS011;9676;50.916;13.352;2022-09-13T07:33:37;10.30;;;9.30;;
19087;SDS011;9676;50.916;13.352;2022-09-13T07:36:29;10.00;;;9.10;;
19087;SDS011;9676;50.916;13.352;2022-09-13T07:39:21;9.90;;;9.00;;
19087;SDS011;9676;50.916;13.352;2022-09-13T07:42:10;10.50;;;9.50;;
19087;SDS011;9676;50.916;13.352;2022-09-13T07:45:01;9.90;;;9.00;;
19087;SDS011;9676;50.916;13.352;2022-09-13T07:47:51;10.20;;;9.30;;
19087;SDS011;9676;50.916;13.352;2022-09-13T07:50:40;10.30;;;9.20;;
19087;SDS011;9676;50.916;13.352;2022-09-13T07:53:30;10.33;;;9.33;;
19087;SDS011;9676;50.916;13.352;2022-09-13T07:56:21;10.40;;;9.40;;
19087;SDS011;9676;50.916;13.352;2022-09-13T07:59:14;10.03;;;9.13;;
19087;SDS011;9676;50.916;13.352;2022-09-13T08:02:08;10.53;;;9.53;;
19087;SDS011;9676;50.916;13.352;2022-09-13T08:05:05;10.10;;;9.20;;
19087;SDS011;9676;50.916;13.352;2022-09-13T08:07:55;10.20;;;9.30;;
19087;SDS011;9676;50.916;13.352;2022-09-13T08:10:44;10.30;;;9.40;;
19087;SDS011;9676;50.916;13.352;2022-09-13T08:13:35;10.30;;;9.40;;
19087;SDS011;9676;50.916;13.352;2022-09-13T08:16:26;10.70;;;9.70;;
19087;SDS011;9676;50.916;13.352;2022-09-13T08:19:18;11.13;;;9.63;;
19087;SDS011;9676;50.916;13.352;2022-09-13T08:22:07;11.00;;;10.00;;
19087;SDS011;9676;50.916;13.352;2022-09-13T08:24:57;10.80;;;9.80;;
19087;SDS011;9676;50.916;13.352;2022-09-13T08:27:46;10.77;;;9.77;;
19087;SDS011;9676;50.916;13.352;2022-09-13T08:30:36;11.07;;;10.00;;
19087;SDS011;9676;50.916;13.352;2022-09-13T08:33:25;10.90;;;9.80;;
19087;SDS011;9676;50.916;13.352;2022-09-13T08:36:16;10.50;;;9.50;;
19087;SDS011;9676;50.916;13.352;2022-09-13T08:39:06;10.63;;;9.63;;
19087;SDS011;9676;50.916;13.352;2022-09-13T08:45:13;10.53;;;9.60;;
19087;SDS011;9676;50.916;13.352;2022-09-13T08:48:04;10.50;;;9.60;;
19087;SDS011;9676;50.916;13.352;2022-09-13T08:51:03;11.10;;;10.00;;
19087;SDS011;9676;50.916;13.352;2022-09-13T08:53:58;10.67;;;9.67;;
19087;SDS011;9676;50.916;13.352;2022-09-13T08:56:50;10.90;;;9.80;;
19087;SDS011;9676;50.916;13.352;2022-09-13T08:59:52;10.60;;;9.60;;
19087;SDS011;9676;50.916;13.352;2022-09-13T09:02:55;10.67;;;9.67;;
19087;SDS011;9676;50.916;13.352;2022-09-13T09:05:55;10.30;;;9.40;;
19087;SDS011;9676;50.916;13.352;2022-09-13T09:08:45;10.37;;;9.47;;
19087;SDS011;9676;50.916;13.352;2022-09-13T09:11:40;10.73;;;9.63;;
19087;SDS011;9676;50.916;13.352;2022-09-13T09:14:36;11.20;;;9.90;;
19087;SDS011;9676;50.916;13.352;2022-09-13T09:17:32;12.63;;;11.43;;
19087;SDS011;9676;50.916;13.352;2022-09-13T09:20:35;12.60;;;11.37;;
19087;SDS011;9676;50.916;13.352;2022-09-13T09:23:30;12.10;;;10.90;;
19087;SDS011;9676;50.916;13.352;2022-09-13T09:26:25;11.77;;;10.67;;
19087;SDS011;9676;50.916;13.352;2022-09-13T09:29:19;10.90;;;9.90;;
19087;SDS011;9676;50.916;13.352;2022-09-13T09:32:15;10.80;;;9.80;;
19087;SDS011;9676;50.916;13.352;2022-09-13T09:35:27;10.60;;;9.60;;
19087;SDS011;9676;50.916;13.352;2022-09-13T09:38:32;10.63;;;9.63;;
19087;SDS011;9676;50.916;13.352;2022-09-13T09:41:28;10.20;;;9.30;;
19087;SDS011;9676;50.916;13.352;2022-09-13T09:44:21;10.03;;;9.03;;
19087;SDS011;9676;50.916;13.352;2022-09-13T09:47:14;10.20;;;9.20;;
19087;SDS011;9676;50.916;13.352;2022-09-13T09:50:07;10.10;;;9.20;;
19087;SDS011;9676;50.916;13.352;2022-09-13T09:53:02;9.90;;;9.00;;
19087;SDS011;9676;50.916;13.352;2022-09-13T09:55:57;9.50;;;8.70;;
19087;SDS011;9676;50.916;13.352;2022-09-13T09:58:50;10.53;;;9.53;;
19087;SDS011;9676;50.916;13.352;2022-09-13T10:01:43;13.87;;;12.53;;
19087;SDS011;9676;50.916;13.352;2022-09-13T10:04:34;13.23;;;10.10;;
19087;SDS011;9676;50.916;13.352;2022-09-13T10:07:25;10.73;;;9.67;;
19087;SDS011;9676;50.916;13.352;2022-09-13T10:10:19;10.20;;;9.30;;
19087;SDS011;9676;50.916;13.352;2022-09-13T10:13:14;9.60;;;8.73;;
19087;SDS011;9676;50.916;13.352;2022-09-13T10:16:22;9.90;;;9.00;;
19087;SDS011;9676;50.916;13.352;2022-09-13T10:19:19;9.80;;;8.90;;
19087;SDS011;9676;50.916;13.352;2022-09-13T10:22:12;9.70;;;8.90;;
19087;SDS011;9676;50.916;13.352;2022-09-13T10:25:12;9.37;;;8.53;;
19087;SDS011;9676;50.916;13.352;2022-09-13T10:28:05;9.70;;;8.80;;
19087;SDS011;9676;50.916;13.352;2022-09-13T10:31:04;9.90;;;9.00;;
19087;SDS011;9676;50.916;13.352;2022-09-13T10:34:03;10.53;;;9.53;;
19087;SDS011;9676;50.916;13.352;2022-09-13T10:36:59;10.07;;;9.10;;
19087;SDS011;9676;50.916;13.352;2022-09-13T10:39:58;10.10;;;9.10;;
19087;SDS011;9676;50.916;13.352;2022-09-13T10:42:53;10.10;;;9.20;;
19087;SDS011;9676;50.916;13.352;2022-09-13T10:45:47;9.73;;;8.83;;
19087;SDS011;9676;50.916;13.352;2022-09-13T10:48:45;9.90;;;9.00;;
19087;SDS011;9676;50.916;13.352;2022-09-13T10:51:42;9.73;;;8.83;;
19087;SDS011;9676;50.916;13.352;2022-09-13T10:54:32;10.13;;;9.10;;
19087;SDS011;9676;50.916;13.352;2022-09-13T10:57:30;9.90;;;9.00;;
19087;SDS011;9676;50.916;13.352;2022-09-13T11:00:23;10.73;;;9.43;;
19087;SDS011;9676;50.916;13.352;2022-09-13T11:03:24;10.27;;;9.27;;
19087;SDS011;9676;50.916;13.352;2022-09-13T11:06:32;12.33;;;9.77;;
19087;SDS011;9676;50.916;13.352;2022-09-13T11:09:30;12.23;;;10.40;;
19087;SDS011;9676;50.916;13.352;2022-09-13T11:12:28;10.33;;;9.33;;
19087;SDS011;9676;50.916;13.352;2022-09-13T11:15:27;10.70;;;9.70;;
19087;SDS011;9676;50.916;13.352;2022-09-13T11:18:33;10.63;;;9.60;;
19087;SDS011;9676;50.916;13.352;2022-09-13T11:21:47;13.17;;;10.30;;
19087;SDS011;9676;50.916;13.352;2022-09-13T11:24:58;13.20;;;10.00;;
19087;SDS011;9676;50.916;13.352;2022-09-13T11:27:59;13.10;;;10.33;;
19087;SDS011;9676;50.916;13.352;2022-09-13T11:31:00;10.60;;;9.50;;
19087;SDS011;9676;50.916;13.352;2022-09-13T11:34:13;10.73;;;9.63;;
19087;SDS011;9676;50.916;13.352;2022-09-13T11:40:36;9.90;;;9.00;;
19087;SDS011;9676;50.916;13.352;2022-09-13T11:43:38;10.20;;;9.20;;
19087;SDS011;9676;50.916;13.352;2022-09-13T11:46:50;9.90;;;8.90;;
19087;SDS011;9676;50.916;13.352;2022-09-13T11:49:56;10.03;;;9.00;;
19087;SDS011;9676;50.916;13.352;2022-09-13T11:53:13;9.30;;;8.50;;
19087;SDS011;9676;50.916;13.352;2022-09-13T11:56:38;9.97;;;9.07;;
19087;SDS011;9676;50.916;13.352;2022-09-13T11:59:33;9.80;;;8.90;;
19087;SDS011;9676;50.916;13.352;2022-09-13T12:02:26;9.77;;;8.87;;
19087;SDS011;9676;50.916;13.352;2022-09-13T12:05:25;9.73;;;8.83;;
19087;SDS011;9676;50.916;13.352;2022-09-13T12:08:20;9.77;;;8.87;;
19087;SDS011;9676;50.916;13.352;2022-09-13T12:11:15;9.47;;;8.67;;
19087;SDS011;9676;50.916;13.352;2022-09-13T12:14:12;9.57;;;8.70;;
19087;SDS011;9676;50.916;13.352;2022-09-13T12:17:06;9.70;;;8.90;;
19087;SDS011;9676;50.916;13.352;2022-09-13T12:20:12;9.73;;;8.87;;
19087;SDS011;9676;50.916;13.352;2022-09-13T12:23:10;9.57;;;8.77;;
19087;SDS011;9676;50.916;13.352;2022-09-13T12:26:06;9.40;;;8.60;;
19087;SDS011;9676;50.916;13.352;2022-09-13T12:29:01;9.70;;;8.80;;
19087;SDS011;9676;50.916;13.352;2022-09-13T12:31:58;9.80;;;8.90;;
19087;SDS011;9676;50.916;13.352;2022-09-13T12:34:53;9.50;;;8.70;;
19087;SDS011;9676;50.916;13.352;2022-09-13T12:37:50;9.50;;;8.70;;
19087;SDS011;9676;50.916;13.352;2022-09-13T12:41:04;9.93;;;9.00;;
19087;SDS011;9676;50.916;13.352;2022-09-13T12:47:35;9.20;;;8.40;;
19087;SDS011;9676;50.916;13.352;2022-09-13T12:50:48;9.47;;;8.67;;
19087;SDS011;9676;50.916;13.352;2022-09-13T12:54:08;9.07;;;8.30;;
19087;SDS011;9676;50.916;13.352;2022-09-13T12:57:28;9.27;;;8.47;;
19087;SDS011;9676;50.916;13.352;2022-09-13T13:00:28;9.30;;;8.50;;
19087;SDS011;9676;50.916;13.352;2022-09-13T13:03:21;9.20;;;8.37;;
19087;SDS011;9676;50.916;13.352;2022-09-13T13:06:27;9.20;;;8.40;;
19087;SDS011;9676;50.916;13.352;2022-09-13T13:09:23;9.37;;;8.57;;
19087;SDS011;9676;50.916;13.352;2022-09-13T13:12:25;9.73;;;8.93;;
19087;SDS011;9676;50.916;13.352;2022-09-13T13:18:52;9.30;;;8.40;;
19087;SDS011;9676;50.916;13.352;2022-09-13T13:21:43;9.50;;;8.70;;
19087;SDS011;9676;50.916;13.352;2022-09-13T13:24:43;9.40;;;8.50;;
19087;SDS011;9676;50.916;13.352;2022-09-13T13:27:39;9.20;;;8.40;;
19087;SDS011;9676;50.916;13.352;2022-09-13T13:33:50;9.30;;;8.50;;
19087;SDS011;9676;50.916;13.352;2022-09-13T13:36:44;9.93;;;8.90;;
19087;SDS011;9676;50.916;13.352;2022-09-13T13:39:37;9.20;;;8.40;;
19087;SDS011;9676;50.916;13.352;2022-09-13T13:42:28;9.50;;;8.70;;
19087;SDS011;9676;50.916;13.352;2022-09-13T13:45:24;8.93;;;8.20;;
19087;SDS011;9676;50.916;13.352;2022-09-13T13:48:15;15.93;;;11.67;;
19087;SDS011;9676;50.916;13.352;2022-09-13T13:51:26;11.07;;;9.97;;
19087;SDS011;9676;50.916;13.352;2022-09-13T13:54:28;10.00;;;9.10;;
19087;SDS011;9676;50.916;13.352;2022-09-13T13:57:49;10.27;;;9.27;;
19087;SDS011;9676;50.916;13.352;2022-09-13T14:00:48;9.90;;;9.00;;
19087;SDS011;9676;50.916;13.352;2022-09-13T14:03:48;9.87;;;8.97;;
19087;SDS011;9676;50.916;13.352;2022-09-13T14:06:47;9.63;;;8.80;;
19087;SDS011;9676;50.916;13.352;2022-09-13T14:09:49;9.53;;;8.73;;
19087;SDS011;9676;50.916;13.352;2022-09-13T14:12:50;9.80;;;8.90;;
19087;SDS011;9676;50.916;13.352;2022-09-13T14:16:01;9.53;;;8.73;;
19087;SDS011;9676;50.916;13.352;2022-09-13T14:19:00;9.70;;;8.80;;
19087;SDS011;9676;50.916;13.352;2022-09-13T14:22:09;10.60;;;8.73;;
19087;SDS011;9676;50.916;13.352;2022-09-13T14:25:14;9.50;;;8.70;;
19087;SDS011;9676;50.916;13.352;2022-09-13T14:28:13;9.40;;;8.60;;
19087;SDS011;9676;50.916;13.352;2022-09-13T14:31:05;10.63;;;8.77;;
19087;SDS011;9676;50.916;13.352;2022-09-13T14:33:55;9.83;;;8.83;;
19087;SDS011;9676;50.916;13.352;2022-09-13T14:36:49;9.70;;;8.80;;
19087;SDS011;9676;50.916;13.352;2022-09-13T14:39:51;9.63;;;8.77;;
19087;SDS011;9676;50.916;13.352;2022-09-13T14:42:45;9.50;;;8.70;;
19087;SDS011;9676;50.916;13.352;2022-09-13T14:45:36;10.60;;;9.50;;
19087;SDS011;9676;50.916;13.352;2022-09-13T14:48:27;10.37;;;9.37;;
19087;SDS011;9676;50.916;13.352;2022-09-13T14:51:22;10.10;;;9.10;;
19087;SDS011;9676;50.916;13.352;2022-09-13T14:54:16;9.80;;;8.90;;
19087;SDS011;9676;50.916;13.352;2022-09-13T14:57:17;9.60;;;8.80;;
19087;SDS011;9676;50.916;13.352;2022-09-13T15:00:17;10.00;;;9.10;;
19087;SDS011;9676;50.916;13.352;2022-09-13T15:03:10;10.93;;;9.93;;
19087;SDS011;9676;50.916;13.352;2022-09-13T15:06:04;10.30;;;9.40;;
19087;SDS011;9676;50.916;13.352;2022-09-13T15:08:55;10.30;;;9.30;;
19087;SDS011;9676;50.916;13.352;2022-09-13T15:11:55;11.97;;;8.90;;
19087;SDS011;9676;50.916;13.352;2022-09-13T15:14:49;11.23;;;8.67;;
19087;SDS011;9676;50.916;13.352;2022-09-13T15:18:22;9.77;;;8.87;;
19087;SDS011;9676;50.916;13.352;2022-09-13T15:21:14;9.83;;;8.93;;
19087;SDS011;9676;50.916;13.352;2022-09-13T15:24:13;9.80;;;8.90;;
19087;SDS011;9676;50.916;13.352;2022-09-13T15:27:16;9.67;;;8.80;;
19087;SDS011;9676;50.916;13.352;2022-09-13T15:30:18;9.80;;;8.90;;
19087;SDS011;9676;50.916;13.352;2022-09-13T15:33:21;9.80;;;8.80;;
19087;SDS011;9676;50.916;13.352;2022-09-13T15:36:14;10.30;;;9.30;;
19087;SDS011;9676;50.916;13.352;2022-09-13T15:39:15;9.93;;;9.03;;
19087;SDS011;9676;50.916;13.352;2022-09-13T15:42:06;10.03;;;9.13;;
19087;SDS011;9676;50.916;13.352;2022-09-13T15:44:56;9.93;;;8.97;;
19087;SDS011;9676;50.916;13.352;2022-09-13T15:47:47;9.57;;;8.67;;
19087;SDS011;9676;50.916;13.352;2022-09-13T15:50:38;9.87;;;8.87;;
19087;SDS011;9676;50.916;13.352;2022-09-13T15:53:28;9.83;;;8.83;;
19087;SDS011;9676;50.916;13.352;2022-09-13T15:56:18;9.70;;;8.80;;
19087;SDS011;9676;50.916;13.352;2022-09-13T15:59:10;9.40;;;8.50;;
19087;SDS011;9676;50.916;13.352;2022-09-13T16:02:02;10.47;;;8.80;;
19087;SDS011;9676;50.916;13.352;2022-09-13T16:05:10;9.70;;;8.80;;
19087;SDS011;9676;50.916;13.352;2022-09-13T16:08:00;9.50;;;8.60;;
19087;SDS011;9676;50.916;13.352;2022-09-13T16:10:50;9.90;;;9.00;;
19087;SDS011;9676;50.916;13.352;2022-09-13T16:13:39;9.60;;;8.70;;
19087;SDS011;9676;50.916;13.352;2022-09-13T16:16:29;11.57;;;9.50;;
19087;SDS011;9676;50.916;13.352;2022-09-13T16:19:38;25.80;;;20.23;;
19087;SDS011;9676;50.916;13.352;2022-09-13T16:22:29;18.20;;;15.10;;
19087;SDS011;9676;50.916;13.352;2022-09-13T16:25:19;14.20;;;12.70;;
19087;SDS011;9676;50.916;13.352;2022-09-13T16:28:09;12.33;;;11.03;;
19087;SDS011;9676;50.916;13.352;2022-09-13T16:31:06;12.03;;;10.73;;
19087;SDS011;9676;50.916;13.352;2022-09-13T16:33:55;11.00;;;9.90;;
19087;SDS011;9676;50.916;13.352;2022-09-13T16:36:45;11.03;;;9.70;;
19087;SDS011;9676;50.916;13.352;2022-09-13T16:39:35;10.53;;;9.50;;
19087;SDS011;9676;50.916;13.352;2022-09-13T16:42:25;10.27;;;9.27;;
19087;SDS011;9676;50.916;13.352;2022-09-13T16:45:15;10.00;;;9.10;;
19087;SDS011;9676;50.916;13.352;2022-09-13T16:48:05;10.00;;;9.00;;
19087;SDS011;9676;50.916;13.352;2022-09-13T16:51:00;9.70;;;8.80;;
19087;SDS011;9676;50.916;13.352;2022-09-13T16:53:50;9.53;;;8.70;;
19087;SDS011;9676;50.916;13.352;2022-09-13T16:56:42;9.67;;;8.80;;
19087;SDS011;9676;50.916;13.352;2022-09-13T16:59:32;9.90;;;8.97;;
19087;SDS011;9676;50.916;13.352;2022-09-13T17:02:21;10.10;;;9.20;;
19087;SDS011;9676;50.916;13.352;2022-09-13T17:05:12;10.20;;;9.20;;
19087;SDS011;9676;50.916;13.352;2022-09-13T17:08:01;10.27;;;9.30;;
19087;SDS011;9676;50.916;13.352;2022-09-13T17:10:51;9.83;;;8.93;;
19087;SDS011;9676;50.916;13.352;2022-09-13T17:13:41;9.90;;;9.00;;
19087;SDS011;9676;50.916;13.352;2022-09-13T17:16:32;10.40;;;9.30;;
19087;SDS011;9676;50.916;13.352;2022-09-13T17:19:24;10.40;;;9.10;;
19087;SDS011;9676;50.916;13.352;2022-09-13T17:22:16;11.40;;;9.10;;
19087;SDS011;9676;50.916;13.352;2022-09-13T17:25:06;10.10;;;9.20;;
19087;SDS011;9676;50.916;13.352;2022-09-13T17:27:56;9.90;;;9.00;;
19087;SDS011;9676;50.916;13.352;2022-09-13T17:30:47;10.60;;;9.60;;
19087;SDS011;9676;50.916;13.352;2022-09-13T17:33:37;9.60;;;8.80;;
19087;SDS011;9676;50.916;13.352;2022-09-13T17:36:26;9.90;;;8.93;;
19087;SDS011;9676;50.916;13.352;2022-09-13T17:39:15;10.30;;;9.27;;
19087;SDS011;9676;50.916;13.352;2022-09-13T17:42:05;10.70;;;9.70;;
19087;SDS011;9676;50.916;13.352;2022-09-13T17:44:55;10.00;;;9.10;;